sensor_id;sensor_type;location;lat;lon;timestamp;pressure;altitude;pressure_sealevel;temperature;humidity
75013;BME280;63567;49.956;20.130;2023-02-28T00:00:30;98236.19;;;-1.56;68.74
75013;BME280;63567;49.956;20.130;2023-02-28T00:02:55;98233.75;;;-1.59;69.12
75013;BME280;63567;49.956;20.130;2023-02-28T00:05:22;98237.09;;;-1.57;68.61
75013;BME280;63567;49.956;20.130;2023-02-28T00:07:47;98240.16;;;-1.66;68.46
75013;BME280;63567;49.956;20.130;2023-02-28T00:10:17;98230.72;;;-1.67;68.72
75013;BME280;63567;49.956;20.130;2023-02-28T00:12:50;98236.66;;;-1.65;68.68
75013;BME280;63567;49.956;20.130;2023-02-28T00:15:16;98241.06;;;-1.67;68.93
75013;BME280;63567;49.956;20.130;2023-02-28T00:17:42;98242.75;;;-1.66;68.80
75013;BME280;63567;49.956;20.130;2023-02-28T00:20:09;98240.41;;;-1.71;69.40
75013;BME280;63567;49.956;20.130;2023-02-28T00:22:36;98247.41;;;-1.73;68.67
75013;BME280;63567;49.956;20.130;2023-02-28T00:25:03;98244.16;;;-1.76;68.24
75013;BME280;63567;49.956;20.130;2023-02-28T00:27:28;98251.91;;;-1.76;68.53
75013;BME280;63567;49.956;20.130;2023-02-28T00:29:53;98251.75;;;-1.73;68.48
75013;BME280;63567;49.956;20.130;2023-02-28T00:32:19;98250.25;;;-1.77;68.62
75013;BME280;63567;49.956;20.130;2023-02-28T00:34:44;98244.66;;;-1.70;68.11
75013;BME280;63567;49.956;20.130;2023-02-28T00:37:10;98243.75;;;-1.69;68.40
75013;BME280;63567;49.956;20.130;2023-02-28T00:39:38;98243.00;;;-1.71;68.45
75013;BME280;63567;49.956;20.130;2023-02-28T00:42:03;98249.16;;;-1.73;67.96
75013;BME280;63567;49.956;20.130;2023-02-28T00:44:30;98245.06;;;-1.77;68.40
75013;BME280;63567;49.956;20.130;2023-02-28T00:46:55;98240.22;;;-1.83;68.64
75013;BME280;63567;49.956;20.130;2023-02-28T00:49:21;98247.16;;;-1.84;68.70
75013;BME280;63567;49.956;20.130;2023-02-28T00:51:47;98247.47;;;-1.90;67.59
75013;BME280;63567;49.956;20.130;2023-02-28T00:54:12;98236.63;;;-1.97;67.76
75013;BME280;63567;49.956;20.130;2023-02-28T00:56:37;98249.09;;;-2.05;67.22
75013;BME280;63567;49.956;20.130;2023-02-28T00:59:03;98242.84;;;-2.01;67.28
75013;BME280;63567;49.956;20.130;2023-02-28T01:01:28;98243.53;;;-1.97;66.96
75013;BME280;63567;49.956;20.130;2023-02-28T01:03:53;98242.63;;;-1.96;67.05
75013;BME280;63567;49.956;20.130;2023-02-28T01:06:18;98234.34;;;-2.03;67.50
75013;BME280;63567;49.956;20.130;2023-02-28T01:08:44;98241.09;;;-2.00;67.40
75013;BME280;63567;49.956;20.130;2023-02-28T01:11:11;98240.41;;;-2.04;67.29
75013;BME280;63567;49.956;20.130;2023-02-28T01:13:37;98243.16;;;-2.07;67.56
75013;BME280;63567;49.956;20.130;2023-02-28T01:16:02;98249.31;;;-2.10;67.52
75013;BME280;63567;49.956;20.130;2023-02-28T01:18:27;98253.75;;;-2.12;67.72
75013;BME280;63567;49.956;20.130;2023-02-28T01:20:53;98255.50;;;-2.12;67.24
75013;BME280;63567;49.956;20.130;2023-02-28T01:23:20;98249.41;;;-2.11;67.03
75013;BME280;63567;49.956;20.130;2023-02-28T01:25:49;98243.66;;;-2.16;66.52
75013;BME280;63567;49.956;20.130;2023-02-28T01:28:14;98248.66;;;-2.31;65.55
75013;BME280;63567;49.956;20.130;2023-02-28T01:30:40;98243.56;;;-2.32;66.83
75013;BME280;63567;49.956;20.130;2023-02-28T01:33:05;98248.53;;;-2.28;66.03
75013;BME280;63567;49.956;20.130;2023-02-28T01:35:35;98249.19;;;-2.24;65.71
75013;BME280;63567;49.956;20.130;2023-02-28T01:38:00;98245.03;;;-2.27;66.03
75013;BME280;63567;49.956;20.130;2023-02-28T01:40:25;98244.34;;;-2.30;66.11
75013;BME280;63567;49.956;20.130;2023-02-28T01:42:51;98249.59;;;-2.32;66.04
75013;BME280;63567;49.956;20.130;2023-02-28T01:45:30;98250.50;;;-2.33;66.39
75013;BME280;63567;49.956;20.130;2023-02-28T01:48:00;98253.47;;;-2.40;66.52
75013;BME280;63567;49.956;20.130;2023-02-28T01:50:30;98242.22;;;-2.39;66.38
75013;BME280;63567;49.956;20.130;2023-02-28T01:53:00;98237.38;;;-2.45;66.91
75013;BME280;63567;49.956;20.130;2023-02-28T01:55:27;98241.88;;;-2.49;67.06
75013;BME280;63567;49.956;20.130;2023-02-28T01:57:57;98242.53;;;-2.45;67.16
75013;BME280;63567;49.956;20.130;2023-02-28T02:00:25;98240.25;;;-2.52;67.82
75013;BME280;63567;49.956;20.130;2023-02-28T02:02:57;98234.28;;;-2.52;68.28
75013;BME280;63567;49.956;20.130;2023-02-28T02:05:29;98238.84;;;-2.57;68.32
75013;BME280;63567;49.956;20.130;2023-02-28T02:07:58;98235.72;;;-2.64;68.33
75013;BME280;63567;49.956;20.130;2023-02-28T02:10:33;98239.38;;;-2.68;68.48
75013;BME280;63567;49.956;20.130;2023-02-28T02:15:55;98235.56;;;-2.78;69.14
75013;BME280;63567;49.956;20.130;2023-02-28T02:29:46;98236.53;;;-2.98;70.05
75013;BME280;63567;49.956;20.130;2023-02-28T02:35:03;98227.56;;;-3.08;70.42
75013;BME280;63567;49.956;20.130;2023-02-28T02:37:55;98220.06;;;-3.13;70.45
75013;BME280;63567;49.956;20.130;2023-02-28T02:40:23;98223.19;;;-3.25;70.93
75013;BME280;63567;49.956;20.130;2023-02-28T02:43:01;98223.38;;;-3.28;70.70
75013;BME280;63567;49.956;20.130;2023-02-28T02:47:55;98216.56;;;-3.48;71.59
75013;BME280;63567;49.956;20.130;2023-02-28T02:50:26;98214.75;;;-3.46;71.09
75013;BME280;63567;49.956;20.130;2023-02-28T02:52:57;98213.94;;;-3.47;71.33
75013;BME280;63567;49.956;20.130;2023-02-28T02:55:24;98213.31;;;-3.52;71.21
75013;BME280;63567;49.956;20.130;2023-02-28T02:57:54;98210.72;;;-3.52;70.83
75013;BME280;63567;49.956;20.130;2023-02-28T03:00:26;98217.00;;;-3.58;71.60
75013;BME280;63567;49.956;20.130;2023-02-28T03:02:53;98206.84;;;-3.61;71.54
75013;BME280;63567;49.956;20.130;2023-02-28T03:05:29;98206.06;;;-3.63;71.77
75013;BME280;63567;49.956;20.130;2023-02-28T03:07:57;98209.69;;;-3.67;71.52
75013;BME280;63567;49.956;20.130;2023-02-28T03:13:07;98220.97;;;-3.69;71.41
75013;BME280;63567;49.956;20.130;2023-02-28T03:15:54;98217.69;;;-3.73;71.17
75013;BME280;63567;49.956;20.130;2023-02-28T03:18:33;98213.59;;;-3.77;71.67
75013;BME280;63567;49.956;20.130;2023-02-28T03:21:36;98214.66;;;-3.81;72.05
75013;BME280;63567;49.956;20.130;2023-02-28T03:24:24;98226.09;;;-3.88;72.15
75013;BME280;63567;49.956;20.130;2023-02-28T03:27:27;98228.13;;;-3.95;71.68
75013;BME280;63567;49.956;20.130;2023-02-28T03:30:05;98224.91;;;-4.00;72.42
75013;BME280;63567;49.956;20.130;2023-02-28T03:32:36;98230.22;;;-4.03;72.73
75013;BME280;63567;49.956;20.130;2023-02-28T03:35:12;98229.56;;;-4.08;72.49
75013;BME280;63567;49.956;20.130;2023-02-28T03:37:40;98228.03;;;-4.13;72.65
75013;BME280;63567;49.956;20.130;2023-02-28T03:40:14;98239.91;;;-4.10;72.52
75013;BME280;63567;49.956;20.130;2023-02-28T03:42:43;98230.53;;;-4.11;73.62
75013;BME280;63567;49.956;20.130;2023-02-28T03:45:18;98234.91;;;-4.13;73.28
75013;BME280;63567;49.956;20.130;2023-02-28T03:47:51;98237.53;;;-4.15;72.72
75013;BME280;63567;49.956;20.130;2023-02-28T03:50:21;98242.94;;;-4.21;72.83
75013;BME280;63567;49.956;20.130;2023-02-28T03:53:02;98247.25;;;-4.21;73.30
75013;BME280;63567;49.956;20.130;2023-02-28T03:55:33;98245.72;;;-4.25;73.35
75013;BME280;63567;49.956;20.130;2023-02-28T03:58:24;98242.31;;;-4.26;73.36
75013;BME280;63567;49.956;20.130;2023-02-28T04:00:57;98243.28;;;-4.28;73.45
75013;BME280;63567;49.956;20.130;2023-02-28T04:03:32;98245.25;;;-4.34;74.11
75013;BME280;63567;49.956;20.130;2023-02-28T04:05:58;98248.63;;;-4.33;73.96
75013;BME280;63567;49.956;20.130;2023-02-28T04:08:23;98248.63;;;-4.33;74.70
75013;BME280;63567;49.956;20.130;2023-02-28T04:11:03;98248.38;;;-4.27;74.00
75013;BME280;63567;49.956;20.130;2023-02-28T04:13:30;98251.00;;;-4.28;74.70
75013;BME280;63567;49.956;20.130;2023-02-28T04:15:56;98253.53;;;-4.27;74.00
75013;BME280;63567;49.956;20.130;2023-02-28T04:18:21;98247.41;;;-4.24;74.47
75013;BME280;63567;49.956;20.130;2023-02-28T04:20:47;98256.00;;;-4.25;74.37
75013;BME280;63567;49.956;20.130;2023-02-28T04:23:12;98253.53;;;-4.27;74.11
75013;BME280;63567;49.956;20.130;2023-02-28T04:25:37;98250.19;;;-4.29;74.13
75013;BME280;63567;49.956;20.130;2023-02-28T04:28:05;98251.97;;;-4.31;74.63
75013;BME280;63567;49.956;20.130;2023-02-28T04:30:30;98252.94;;;-4.34;74.55
75013;BME280;63567;49.956;20.130;2023-02-28T04:32:57;98258.97;;;-4.35;73.72
75013;BME280;63567;49.956;20.130;2023-02-28T04:35:22;98261.69;;;-4.38;74.69
75013;BME280;63567;49.956;20.130;2023-02-28T04:37:48;98254.09;;;-4.41;74.32
75013;BME280;63567;49.956;20.130;2023-02-28T04:40:13;98257.63;;;-4.43;73.78
75013;BME280;63567;49.956;20.130;2023-02-28T04:42:38;98260.34;;;-4.46;73.85
75013;BME280;63567;49.956;20.130;2023-02-28T04:45:04;98252.88;;;-4.52;74.52
75013;BME280;63567;49.956;20.130;2023-02-28T04:47:30;98255.41;;;-4.51;73.58
75013;BME280;63567;49.956;20.130;2023-02-28T04:49:55;98262.34;;;-4.53;74.29
75013;BME280;63567;49.956;20.130;2023-02-28T04:52:21;98256.47;;;-4.57;74.55
75013;BME280;63567;49.956;20.130;2023-02-28T04:54:46;98261.75;;;-4.60;74.41
75013;BME280;63567;49.956;20.130;2023-02-28T04:57:11;98264.44;;;-4.63;74.54
75013;BME280;63567;49.956;20.130;2023-02-28T04:59:37;98265.34;;;-4.64;75.09
75013;BME280;63567;49.956;20.130;2023-02-28T05:02:02;98267.84;;;-4.62;74.69
75013;BME280;63567;49.956;20.130;2023-02-28T05:04:34;98262.69;;;-4.62;75.01
75013;BME280;63567;49.956;20.130;2023-02-28T05:07:00;98254.34;;;-4.67;74.93
75013;BME280;63567;49.956;20.130;2023-02-28T05:09:26;98262.84;;;-4.65;74.75
75013;BME280;63567;49.956;20.130;2023-02-28T05:11:52;98255.31;;;-4.70;74.50
75013;BME280;63567;49.956;20.130;2023-02-28T05:14:17;98262.06;;;-4.67;75.23
75013;BME280;63567;49.956;20.130;2023-02-28T05:16:43;98264.78;;;-4.70;74.95
75013;BME280;63567;49.956;20.130;2023-02-28T05:19:08;98263.22;;;-4.75;74.58
75013;BME280;63567;49.956;20.130;2023-02-28T05:21:35;98267.50;;;-4.75;74.53
75013;BME280;63567;49.956;20.130;2023-02-28T05:24:08;98264.94;;;-4.75;75.12
75013;BME280;63567;49.956;20.130;2023-02-28T05:26:37;98276.19;;;-4.78;75.49
75013;BME280;63567;49.956;20.130;2023-02-28T05:29:03;98274.53;;;-4.79;74.81
75013;BME280;63567;49.956;20.130;2023-02-28T05:31:29;98272.91;;;-4.81;75.56
75013;BME280;63567;49.956;20.130;2023-02-28T05:33:54;98279.72;;;-4.80;75.64
75013;BME280;63567;49.956;20.130;2023-02-28T05:36:20;98290.00;;;-4.80;75.00
75013;BME280;63567;49.956;20.130;2023-02-28T05:38:46;98289.16;;;-4.81;74.90
75013;BME280;63567;49.956;20.130;2023-02-28T05:41:12;98290.97;;;-4.83;75.22
75013;BME280;63567;49.956;20.130;2023-02-28T05:43:38;98299.44;;;-4.81;75.31
75013;BME280;63567;49.956;20.130;2023-02-28T05:46:08;98299.31;;;-4.78;75.22
75013;BME280;63567;49.956;20.130;2023-02-28T05:48:34;98305.34;;;-4.79;75.40
75013;BME280;63567;49.956;20.130;2023-02-28T05:50:59;98294.41;;;-4.84;76.21
75013;BME280;63567;49.956;20.130;2023-02-28T05:53:25;98305.28;;;-4.77;75.86
75013;BME280;63567;49.956;20.130;2023-02-28T05:55:51;98306.81;;;-4.73;76.38
75013;BME280;63567;49.956;20.130;2023-02-28T05:58:16;98308.97;;;-4.62;76.21
75013;BME280;63567;49.956;20.130;2023-02-28T06:00:41;98315.28;;;-4.49;75.94
75013;BME280;63567;49.956;20.130;2023-02-28T06:03:07;98309.00;;;-4.42;76.61
75013;BME280;63567;49.956;20.130;2023-02-28T06:05:32;98308.63;;;-4.32;76.00
75013;BME280;63567;49.956;20.130;2023-02-28T06:07:58;98321.19;;;-4.25;76.41
75013;BME280;63567;49.956;20.130;2023-02-28T06:10:23;98314.72;;;-4.15;76.33
75013;BME280;63567;49.956;20.130;2023-02-28T06:12:48;98318.78;;;-4.09;76.18
75013;BME280;63567;49.956;20.130;2023-02-28T06:15:15;98323.59;;;-4.01;75.85
75013;BME280;63567;49.956;20.130;2023-02-28T06:17:41;98331.75;;;-3.92;75.33
75013;BME280;63567;49.956;20.130;2023-02-28T06:20:08;98337.22;;;-3.79;75.61
75013;BME280;63567;49.956;20.130;2023-02-28T06:22:35;98340.22;;;-3.69;75.63
75013;BME280;63567;49.956;20.130;2023-02-28T06:25:00;98338.16;;;-3.61;75.18
75013;BME280;63567;49.956;20.130;2023-02-28T06:27:25;98337.81;;;-3.53;73.83
75013;BME280;63567;49.956;20.130;2023-02-28T06:29:54;98341.59;;;-3.41;73.74
75013;BME280;63567;49.956;20.130;2023-02-28T06:32:20;98341.94;;;-3.30;73.68
75013;BME280;63567;49.956;20.130;2023-02-28T06:34:46;98337.34;;;-3.23;74.10
75013;BME280;63567;49.956;20.130;2023-02-28T06:37:11;98334.47;;;-3.17;73.56
75013;BME280;63567;49.956;20.130;2023-02-28T06:39:36;98338.94;;;-3.02;73.87
75013;BME280;63567;49.956;20.130;2023-02-28T06:42:02;98339.97;;;-3.06;73.83
75013;BME280;63567;49.956;20.130;2023-02-28T06:44:27;98337.81;;;-2.96;73.10
75013;BME280;63567;49.956;20.130;2023-02-28T06:47:04;98330.47;;;-2.86;73.27
75013;BME280;63567;49.956;20.130;2023-02-28T06:49:31;98335.44;;;-2.82;73.04
75013;BME280;63567;49.956;20.130;2023-02-28T06:51:56;98335.28;;;-2.79;72.50
75013;BME280;63567;49.956;20.130;2023-02-28T06:54:21;98345.22;;;-2.71;72.36
75013;BME280;63567;49.956;20.130;2023-02-28T06:56:47;98340.91;;;-2.71;71.88
75013;BME280;63567;49.956;20.130;2023-02-28T06:59:12;98348.06;;;-2.58;71.71
75013;BME280;63567;49.956;20.130;2023-02-28T07:01:38;98351.03;;;-2.49;71.22
75013;BME280;63567;49.956;20.130;2023-02-28T07:04:05;98351.50;;;-2.40;71.33
75013;BME280;63567;49.956;20.130;2023-02-28T07:06:30;98355.75;;;-2.39;71.23
75013;BME280;63567;49.956;20.130;2023-02-28T07:08:56;98353.09;;;-2.38;71.29
75013;BME280;63567;49.956;20.130;2023-02-28T07:11:23;98363.13;;;-2.14;71.16
75013;BME280;63567;49.956;20.130;2023-02-28T07:13:51;98362.69;;;-2.05;70.82
75013;BME280;63567;49.956;20.130;2023-02-28T07:16:16;98361.09;;;-2.08;70.29
75013;BME280;63567;49.956;20.130;2023-02-28T07:18:41;98370.88;;;-1.97;70.34
75013;BME280;63567;49.956;20.130;2023-02-28T07:21:09;98365.31;;;-1.89;70.09
75013;BME280;63567;49.956;20.130;2023-02-28T07:23:34;98370.03;;;-1.80;70.49
75013;BME280;63567;49.956;20.130;2023-02-28T07:26:00;98365.97;;;-1.68;69.27
75013;BME280;63567;49.956;20.130;2023-02-28T07:28:26;98369.78;;;-1.58;68.33
75013;BME280;63567;49.956;20.130;2023-02-28T07:30:51;98372.34;;;-1.58;67.58
75013;BME280;63567;49.956;20.130;2023-02-28T07:33:16;98367.38;;;-1.45;67.92
75013;BME280;63567;49.956;20.130;2023-02-28T07:35:42;98364.56;;;-1.25;67.08
75013;BME280;63567;49.956;20.130;2023-02-28T07:38:08;98363.19;;;-1.14;66.50
75013;BME280;63567;49.956;20.130;2023-02-28T07:40:34;98364.59;;;-1.09;66.34
75013;BME280;63567;49.956;20.130;2023-02-28T07:43:01;98365.44;;;-0.92;65.21
75013;BME280;63567;49.956;20.130;2023-02-28T07:45:27;98368.44;;;-0.84;65.67
75013;BME280;63567;49.956;20.130;2023-02-28T07:47:53;98363.59;;;-0.74;64.23
75013;BME280;63567;49.956;20.130;2023-02-28T07:50:19;98364.41;;;-0.42;64.61
75013;BME280;63567;49.956;20.130;2023-02-28T07:52:44;98367.88;;;-0.27;63.07
75013;BME280;63567;49.956;20.130;2023-02-28T07:55:10;98364.66;;;0.14;63.78
75013;BME280;63567;49.956;20.130;2023-02-28T07:57:35;98361.56;;;0.37;61.30
75013;BME280;63567;49.956;20.130;2023-02-28T08:00:05;98369.78;;;0.44;60.13
75013;BME280;63567;49.956;20.130;2023-02-28T08:02:30;98361.91;;;0.60;60.41
75013;BME280;63567;49.956;20.130;2023-02-28T08:04:56;98364.78;;;0.84;59.58
75013;BME280;63567;49.956;20.130;2023-02-28T08:07:22;98358.31;;;0.91;57.29
75013;BME280;63567;49.956;20.130;2023-02-28T08:09:47;98362.34;;;1.10;55.84
75013;BME280;63567;49.956;20.130;2023-02-28T08:12:13;98362.13;;;1.13;55.13
75013;BME280;63567;49.956;20.130;2023-02-28T08:14:39;98360.00;;;1.47;55.32
75013;BME280;63567;49.956;20.130;2023-02-28T08:17:05;98359.31;;;1.84;56.55
75013;BME280;63567;49.956;20.130;2023-02-28T08:19:30;98356.09;;;1.94;53.10
75013;BME280;63567;49.956;20.130;2023-02-28T08:21:57;98359.56;;;2.20;50.26
75013;BME280;63567;49.956;20.130;2023-02-28T08:24:22;98366.44;;;2.34;51.02
75013;BME280;63567;49.956;20.130;2023-02-28T08:26:48;98364.66;;;2.47;51.08
75013;BME280;63567;49.956;20.130;2023-02-28T08:29:13;98356.00;;;2.85;51.09
75013;BME280;63567;49.956;20.130;2023-02-28T08:31:38;98358.53;;;3.47;50.75
75013;BME280;63567;49.956;20.130;2023-02-28T08:34:12;98363.31;;;3.54;47.85
75013;BME280;63567;49.956;20.130;2023-02-28T08:36:38;98361.19;;;3.83;49.00
75013;BME280;63567;49.956;20.130;2023-02-28T08:39:04;98354.75;;;4.11;47.30
75013;BME280;63567;49.956;20.130;2023-02-28T08:41:30;98348.75;;;3.86;45.93
75013;BME280;63567;49.956;20.130;2023-02-28T08:43:55;98356.09;;;4.17;44.51
75013;BME280;63567;49.956;20.130;2023-02-28T08:46:21;98366.25;;;3.73;45.22
75013;BME280;63567;49.956;20.130;2023-02-28T08:48:46;98363.47;;;3.39;46.20
75013;BME280;63567;49.956;20.130;2023-02-28T08:51:14;98360.47;;;3.57;46.73
75013;BME280;63567;49.956;20.130;2023-02-28T08:53:42;98362.63;;;3.87;46.03
75013;BME280;63567;49.956;20.130;2023-02-28T08:56:10;98363.38;;;4.00;43.72
75013;BME280;63567;49.956;20.130;2023-02-28T08:58:36;98358.50;;;3.96;43.55
75013;BME280;63567;49.956;20.130;2023-02-28T09:01:08;98362.72;;;3.85;44.05
75013;BME280;63567;49.956;20.130;2023-02-28T09:03:34;98367.84;;;3.87;43.33
75013;BME280;63567;49.956;20.130;2023-02-28T09:06:00;98369.06;;;4.05;44.24
75013;BME280;63567;49.956;20.130;2023-02-28T09:08:27;98361.44;;;4.38;44.06
75013;BME280;63567;49.956;20.130;2023-02-28T09:10:53;98365.72;;;4.39;43.18
75013;BME280;63567;49.956;20.130;2023-02-28T09:13:20;98356.84;;;4.41;43.97
75013;BME280;63567;49.956;20.130;2023-02-28T09:15:45;98361.50;;;4.60;41.44
75013;BME280;63567;49.956;20.130;2023-02-28T09:18:11;98358.03;;;4.60;41.60
75013;BME280;63567;49.956;20.130;2023-02-28T09:20:41;98358.28;;;4.45;41.05
75013;BME280;63567;49.956;20.130;2023-02-28T09:23:08;98362.66;;;4.56;43.74
75013;BME280;63567;49.956;20.130;2023-02-28T09:25:35;98360.47;;;5.29;42.64
75013;BME280;63567;49.956;20.130;2023-02-28T09:28:00;98358.34;;;5.34;40.04
75013;BME280;63567;49.956;20.130;2023-02-28T09:30:26;98357.44;;;5.12;41.93
75013;BME280;63567;49.956;20.130;2023-02-28T09:32:52;98363.75;;;5.10;42.11
75013;BME280;63567;49.956;20.130;2023-02-28T09:35:22;98362.75;;;5.22;41.44
75013;BME280;63567;49.956;20.130;2023-02-28T09:37:48;98358.72;;;5.73;41.95
75013;BME280;63567;49.956;20.130;2023-02-28T09:40:14;98361.06;;;6.08;41.47
75013;BME280;63567;49.956;20.130;2023-02-28T09:42:45;98359.69;;;6.46;39.01
75013;BME280;63567;49.956;20.130;2023-02-28T09:45:33;98359.34;;;6.40;38.64
75013;BME280;63567;49.956;20.130;2023-02-28T09:48:00;98365.16;;;6.22;40.08
75013;BME280;63567;49.956;20.130;2023-02-28T09:52:58;98366.63;;;6.15;38.81
75013;BME280;63567;49.956;20.130;2023-02-28T09:55:34;98366.75;;;6.13;39.59
75013;BME280;63567;49.956;20.130;2023-02-28T09:58:02;98368.28;;;6.37;38.99
75013;BME280;63567;49.956;20.130;2023-02-28T10:00:39;98365.34;;;6.09;38.09
75013;BME280;63567;49.956;20.130;2023-02-28T10:06:12;98364.78;;;6.06;39.24
75013;BME280;63567;49.956;20.130;2023-02-28T10:08:52;98367.25;;;7.11;38.28
75013;BME280;63567;49.956;20.130;2023-02-28T10:11:20;98369.56;;;6.64;38.78
75013;BME280;63567;49.956;20.130;2023-02-28T10:14:00;98357.03;;;6.67;39.28
75013;BME280;63567;49.956;20.130;2023-02-28T10:17:02;98358.63;;;7.30;36.23
75013;BME280;63567;49.956;20.130;2023-02-28T10:19:54;98354.97;;;8.20;37.05
75013;BME280;63567;49.956;20.130;2023-02-28T10:22:33;98355.19;;;8.56;36.48
75013;BME280;63567;49.956;20.130;2023-02-28T10:24:59;98350.16;;;8.72;36.80
75013;BME280;63567;49.956;20.130;2023-02-28T10:27:32;98352.66;;;8.64;36.14
75013;BME280;63567;49.956;20.130;2023-02-28T10:29:58;98349.66;;;8.39;36.28
75013;BME280;63567;49.956;20.130;2023-02-28T10:32:29;98345.22;;;9.24;35.42
75013;BME280;63567;49.956;20.130;2023-02-28T10:34:59;98348.50;;;9.90;33.19
75013;BME280;63567;49.956;20.130;2023-02-28T10:37:26;98346.47;;;10.02;32.31
75013;BME280;63567;49.956;20.130;2023-02-28T10:39:52;98346.28;;;10.65;33.14
75013;BME280;63567;49.956;20.130;2023-02-28T10:42:23;98334.22;;;10.97;32.25
75013;BME280;63567;49.956;20.130;2023-02-28T10:45:11;98335.72;;;10.92;30.29
75013;BME280;63567;49.956;20.130;2023-02-28T10:50:50;98333.94;;;11.43;29.94
75013;BME280;63567;49.956;20.130;2023-02-28T10:58:46;98315.69;;;15.31;24.81
75013;BME280;63567;49.956;20.130;2023-02-28T11:01:15;98317.69;;;16.09;21.97
75013;BME280;63567;49.956;20.130;2023-02-28T11:03:41;98323.00;;;16.87;22.27
75013;BME280;63567;49.956;20.130;2023-02-28T11:06:13;98321.84;;;19.04;20.32
75013;BME280;63567;49.956;20.130;2023-02-28T11:08:52;98310.59;;;20.36;18.62
75013;BME280;63567;49.956;20.130;2023-02-28T11:11:18;98318.72;;;21.28;16.22
75013;BME280;63567;49.956;20.130;2023-02-28T11:13:45;98312.94;;;21.61;16.01
75013;BME280;63567;49.956;20.130;2023-02-28T11:16:13;98312.13;;;22.45;15.21
75013;BME280;63567;49.956;20.130;2023-02-28T11:18:47;98306.72;;;22.80;15.70
75013;BME280;63567;49.956;20.130;2023-02-28T11:21:20;98299.72;;;24.73;14.23
75013;BME280;63567;49.956;20.130;2023-02-28T11:23:47;98299.88;;;25.77;13.46
75013;BME280;63567;49.956;20.130;2023-02-28T11:26:14;98295.44;;;25.66;12.62
75013;BME280;63567;49.956;20.130;2023-02-28T11:28:41;98297.44;;;25.26;12.45
75013;BME280;63567;49.956;20.130;2023-02-28T11:33:47;98294.91;;;25.41;12.16
75013;BME280;63567;49.956;20.130;2023-02-28T11:36:30;98299.25;;;24.59;12.15
75013;BME280;63567;49.956;20.130;2023-02-28T11:38:59;98289.94;;;24.50;12.84
75013;BME280;63567;49.956;20.130;2023-02-28T11:42:04;98281.88;;;23.99;14.00
75013;BME280;63567;49.956;20.130;2023-02-28T11:47:40;98281.94;;;20.18;16.57
75013;BME280;63567;49.956;20.130;2023-02-28T11:50:16;98275.75;;;19.92;17.32
75013;BME280;63567;49.956;20.130;2023-02-28T11:52:52;98278.78;;;19.70;16.97
75013;BME280;63567;49.956;20.130;2023-02-28T11:55:35;98280.22;;;19.73;16.47
75013;BME280;63567;49.956;20.130;2023-02-28T12:01:03;98279.22;;;21.23;15.65
75013;BME280;63567;49.956;20.130;2023-02-28T12:04:01;98274.69;;;22.20;14.25
75013;BME280;63567;49.956;20.130;2023-02-28T12:06:33;98272.72;;;22.86;13.91
75013;BME280;63567;49.956;20.130;2023-02-28T12:09:11;98273.88;;;23.02;13.19
75013;BME280;63567;49.956;20.130;2023-02-28T12:11:51;98268.22;;;23.44;12.90
75013;BME280;63567;49.956;20.130;2023-02-28T12:17:34;98272.38;;;25.31;11.63
75013;BME280;63567;49.956;20.130;2023-02-28T12:20:42;98276.28;;;24.57;11.95
75013;BME280;63567;49.956;20.130;2023-02-28T12:28:46;98274.06;;;26.23;10.85
75013;BME280;63567;49.956;20.130;2023-02-28T12:31:24;98269.63;;;24.82;11.81
75013;BME280;63567;49.956;20.130;2023-02-28T12:33:53;98273.19;;;24.87;11.70
75013;BME280;63567;49.956;20.130;2023-02-28T12:36:19;98272.66;;;24.29;12.26
75013;BME280;63567;49.956;20.130;2023-02-28T12:41:41;98270.59;;;24.19;11.96
75013;BME280;63567;49.956;20.130;2023-02-28T12:44:13;98279.06;;;25.23;12.16
75013;BME280;63567;49.956;20.130;2023-02-28T12:46:42;98268.97;;;24.74;11.59
75013;BME280;63567;49.956;20.130;2023-02-28T12:49:20;98280.34;;;26.72;11.05
75013;BME280;63567;49.956;20.130;2023-02-28T12:51:48;98279.13;;;26.10;11.15
75013;BME280;63567;49.956;20.130;2023-02-28T12:54:25;98277.66;;;26.34;11.31
75013;BME280;63567;49.956;20.130;2023-02-28T12:59:52;98269.03;;;26.00;11.98
75013;BME280;63567;49.956;20.130;2023-02-28T13:02:45;98261.47;;;25.42;11.08
75013;BME280;63567;49.956;20.130;2023-02-28T13:08:24;98269.91;;;26.91;10.66
75013;BME280;63567;49.956;20.130;2023-02-28T13:10:53;98258.28;;;25.78;11.49
75013;BME280;63567;49.956;20.130;2023-02-28T13:13:22;98264.78;;;24.45;11.87
75013;BME280;63567;49.956;20.130;2023-02-28T13:16:06;98254.59;;;23.96;11.91
75013;BME280;63567;49.956;20.130;2023-02-28T13:18:45;98255.72;;;24.90;11.75
75013;BME280;63567;49.956;20.130;2023-02-28T13:21:27;98247.09;;;25.64;11.05
75013;BME280;63567;49.956;20.130;2023-02-28T13:29:01;98250.50;;;25.05;11.15
75013;BME280;63567;49.956;20.130;2023-02-28T13:31:27;98239.44;;;24.07;12.54
75013;BME280;63567;49.956;20.130;2023-02-28T13:36:32;98238.22;;;24.14;12.23
75013;BME280;63567;49.956;20.130;2023-02-28T13:39:02;98238.72;;;23.94;12.76
75013;BME280;63567;49.956;20.130;2023-02-28T13:44:06;98230.78;;;23.25;13.00
75013;BME280;63567;49.956;20.130;2023-02-28T13:55:17;98220.00;;;23.71;13.21
75013;BME280;63567;49.956;20.130;2023-02-28T13:58:03;98216.69;;;22.54;13.40
75013;BME280;63567;49.956;20.130;2023-02-28T14:00:59;98214.72;;;21.90;13.98
75013;BME280;63567;49.956;20.130;2023-02-28T14:11:34;98202.41;;;21.59;14.19
75013;BME280;63567;49.956;20.130;2023-02-28T14:14:00;98201.38;;;21.60;14.31
75013;BME280;63567;49.956;20.130;2023-02-28T14:16:28;98195.50;;;20.91;15.16
75013;BME280;63567;49.956;20.130;2023-02-28T14:19:05;98196.50;;;19.41;17.12
75013;BME280;63567;49.956;20.130;2023-02-28T14:21:36;98197.06;;;19.81;16.68
75013;BME280;63567;49.956;20.130;2023-02-28T14:30:15;98195.78;;;19.59;17.26
75013;BME280;63567;49.956;20.130;2023-02-28T14:32:54;98199.91;;;18.78;18.32
75013;BME280;63567;49.956;20.130;2023-02-28T14:38:17;98208.09;;;18.11;19.08
75013;BME280;63567;49.956;20.130;2023-02-28T14:40:44;98199.88;;;17.39;19.88
75013;BME280;63567;49.956;20.130;2023-02-28T14:43:20;98201.34;;;16.80;20.21